createdAt,value
2018-11-12T00:00:43.282Z,32.25
2018-11-12T00:03:12.553Z,37.23
2018-11-12T00:05:41.830Z,34.70
2018-11-12T00:08:11.192Z,37.90
2018-11-12T00:10:40.374Z,32.65
2018-11-12T00:13:09.579Z,29.42
2018-11-12T00:15:38.825Z,29.63
2018-11-12T00:18:08.936Z,28.17
2018-11-12T00:20:38.136Z,28.73
2018-11-12T00:23:07.407Z,27.50
2018-11-12T00:25:36.680Z,46.40
2018-11-12T00:28:06.382Z,36.98
2018-11-12T00:30:35.609Z,30.17
2018-11-12T00:33:04.851Z,33.18
2018-11-12T00:35:34.042Z,39.15
2018-11-12T00:38:03.273Z,36.30
2018-11-12T00:40:32.515Z,37.50
2018-11-12T00:43:01.758Z,45.10
2018-11-12T00:45:30.955Z,41.05
2018-11-12T00:48:00.155Z,37.28
2018-11-12T00:50:29.349Z,40.63
2018-11-12T00:52:58.617Z,41.70
2018-11-12T00:55:27.749Z,34.03
2018-11-12T00:57:56.973Z,34.60
2018-11-12T01:00:26.633Z,33.02
2018-11-12T01:02:55.871Z,34.38
2018-11-12T01:05:25.991Z,39.35
2018-11-12T01:07:55.319Z,44.27
2018-11-12T01:10:24.521Z,35.98
2018-11-12T01:12:53.847Z,41.10
2018-11-12T01:15:23.129Z,38.75
2018-11-12T01:17:52.275Z,33.08
2018-11-12T01:20:21.477Z,33.53
2018-11-12T01:22:50.569Z,37.08
2018-11-12T01:25:19.912Z,37.13
2018-11-12T01:27:49.065Z,29.23
2018-11-12T01:30:19.182Z,37.00
2018-11-12T01:32:48.553Z,32.23
2018-11-12T01:35:18.702Z,33.85
2018-11-12T01:37:47.925Z,38.48
2018-11-12T01:40:17.367Z,30.43
2018-11-12T01:42:46.821Z,26.87
2018-11-12T01:45:18.295Z,31.95
2018-11-12T01:47:48.689Z,40.85
2018-11-12T01:50:18.622Z,42.75
2018-11-12T01:52:48.589Z,49.27
2018-11-12T01:55:19.025Z,40.25
2018-11-12T01:57:48.239Z,40.75
2018-11-12T02:00:21.928Z,43.30
2018-11-12T02:02:52.353Z,38.65
2018-11-12T02:05:21.619Z,35.98
2018-11-12T02:07:50.867Z,33.85
2018-11-12T02:10:20.349Z,36.30
2018-11-12T02:12:49.683Z,33.60
2018-11-12T02:15:20.300Z,33.80
2018-11-12T02:17:50.241Z,38.60
2018-11-12T02:20:20.513Z,39.15
2018-11-12T02:22:50.438Z,38.50
2018-11-12T02:25:20.903Z,36.10
2018-11-12T02:27:50.051Z,38.48
2018-11-12T02:30:24.587Z,34.23
2018-11-12T02:32:53.785Z,32.63
2018-11-12T02:35:22.996Z,31.80
2018-11-12T02:37:52.221Z,39.42
2018-11-12T02:40:21.565Z,31.57
2018-11-12T02:42:50.902Z,40.88
2018-11-12T02:45:20.619Z,38.80
2018-11-12T02:47:49.725Z,40.50
2018-11-12T02:50:19.061Z,36.95
2018-11-12T02:52:48.271Z,42.10
2018-11-12T02:55:17.495Z,35.63
2018-11-12T02:57:47.791Z,27.67
2018-11-12T03:00:21.917Z,25.60
2018-11-12T03:02:51.184Z,30.95
2018-11-12T03:05:20.341Z,41.45
2018-11-12T03:07:49.544Z,33.20
2018-11-12T03:10:21.366Z,35.80
2018-11-12T03:12:50.647Z,25.23
2018-11-12T03:15:20.615Z,30.25
2018-11-12T03:17:51.658Z,25.75
2018-11-12T03:20:22.047Z,25.52
2018-11-12T03:22:51.483Z,33.35
2018-11-12T03:25:21.701Z,37.33
2018-11-12T03:27:51.396Z,33.45
2018-11-12T03:30:21.965Z,36.65
2018-11-12T03:32:52.070Z,36.40
2018-11-12T03:35:21.281Z,30.05
2018-11-12T03:37:51.258Z,33.92
2018-11-12T03:40:22.789Z,31.70
2018-11-12T03:42:52.430Z,28.38
2018-11-12T03:45:22.893Z,35.10
2018-11-12T03:47:52.745Z,34.60
2018-11-12T03:50:23.176Z,36.42
2018-11-12T03:52:52.417Z,35.08
2018-11-12T03:55:22.486Z,39.95
2018-11-12T03:57:52.547Z,39.30
2018-11-12T04:00:37.174Z,35.80
2018-11-12T04:03:06.359Z,36.17
2018-11-12T04:05:35.603Z,41.77
2018-11-12T04:08:04.765Z,48.55
2018-11-12T04:10:33.961Z,37.05
2018-11-12T04:13:03.297Z,38.02
2018-11-12T04:15:32.562Z,40.95
2018-11-12T04:18:01.818Z,42.40
2018-11-12T04:20:31.059Z,35.68
2018-11-12T04:23:03.293Z,41.98
2018-11-12T04:25:33.825Z,38.28
2018-11-12T04:28:03.081Z,40.58
2018-11-12T04:30:32.235Z,40.15
2018-11-12T04:33:01.422Z,43.13
2018-11-12T04:35:30.682Z,41.10
2018-11-12T04:38:00.181Z,42.20
2018-11-12T04:40:29.425Z,33.95
2018-11-12T04:42:58.622Z,38.95
2018-11-12T04:45:27.924Z,39.38
2018-11-12T04:47:57.143Z,36.23
2018-11-12T04:50:27.576Z,35.75
2018-11-12T04:52:56.848Z,30.75
2018-11-12T04:55:26.748Z,31.82
2018-11-12T04:57:55.674Z,28.25
2018-11-12T05:00:26.048Z,27.00
2018-11-12T05:02:55.434Z,37.73
2018-11-12T05:05:25.933Z,32.85
2018-11-12T05:07:55.174Z,39.42
2018-11-12T05:10:25.521Z,39.92
2018-11-12T05:12:55.805Z,38.53
2018-11-12T05:15:25.721Z,40.25
2018-11-12T05:17:55.000Z,32.33
2018-11-12T05:20:29.356Z,25.52
2018-11-12T05:23:00.546Z,31.02
2018-11-12T05:25:29.742Z,34.73
2018-11-12T05:27:58.966Z,36.05
2018-11-12T05:30:29.206Z,37.95
2018-11-12T05:32:58.906Z,32.00
2018-11-12T05:35:29.215Z,37.75
2018-11-12T05:37:59.412Z,29.35
2018-11-12T05:40:29.754Z,30.55
2018-11-12T05:42:59.098Z,25.85
2018-11-12T05:45:29.165Z,25.80
2018-11-12T05:47:58.321Z,29.55
2018-11-12T05:50:30.531Z,35.28
2018-11-12T05:53:00.998Z,33.65
2018-11-12T05:55:30.994Z,31.48
2018-11-12T05:58:00.565Z,30.85
2018-11-12T06:00:37.011Z,28.75
2018-11-12T06:03:06.680Z,25.10
2018-11-12T06:05:36.174Z,28.27
2018-11-12T06:08:05.447Z,28.05
2018-11-12T06:10:35.507Z,33.48
2018-11-12T06:13:05.106Z,34.67
2018-11-12T06:15:34.386Z,34.48
2018-11-12T06:18:03.718Z,28.60
2018-11-12T06:20:33.666Z,35.30
2018-11-12T06:23:02.851Z,38.15
2018-11-12T06:25:33.754Z,38.38
2018-11-12T06:28:03.077Z,29.35
2018-11-12T06:30:33.790Z,31.60
2018-11-12T06:33:03.035Z,26.68
2018-11-12T06:35:32.340Z,27.55
2018-11-12T06:38:01.582Z,23.62
2018-11-12T06:40:30.859Z,30.00
2018-11-12T06:43:00.119Z,29.02
2018-11-12T06:45:30.726Z,27.48
2018-11-12T06:48:00.500Z,27.95
2018-11-12T06:50:31.651Z,32.00
2018-11-12T06:53:01.288Z,30.80
2018-11-12T06:55:30.565Z,28.40
2018-11-12T06:57:59.793Z,32.45
2018-11-12T07:00:30.297Z,34.33
2018-11-12T07:02:59.469Z,32.10
2018-11-12T07:05:29.249Z,26.50
2018-11-12T07:07:59.512Z,26.45
2018-11-12T07:10:29.569Z,34.90
2018-11-12T07:13:18.516Z,33.00
2018-11-12T07:16:03.462Z,34.58
2018-11-12T07:18:38.703Z,32.42
2018-11-12T07:21:07.930Z,29.55
2018-11-12T07:23:37.190Z,29.82
2018-11-12T07:26:06.398Z,31.85
2018-11-12T07:28:35.677Z,28.05
2018-11-12T07:31:05.211Z,28.42
2018-11-12T07:33:34.390Z,29.72
2018-11-12T07:36:03.664Z,37.00
2018-11-12T07:38:32.814Z,33.05
2018-11-12T07:41:02.066Z,27.58
2018-11-12T07:43:31.252Z,28.87
2018-11-12T07:46:00.462Z,23.67
2018-11-12T07:48:29.615Z,31.73
2018-11-12T07:50:58.888Z,26.07
2018-11-12T07:53:28.210Z,30.25
2018-11-12T07:55:57.418Z,25.50
2018-11-12T07:58:26.620Z,26.85
2018-11-12T08:00:55.820Z,34.73
2018-11-12T08:03:25.121Z,32.00
2018-11-12T08:05:55.114Z,28.83
2018-11-12T08:08:24.378Z,39.33
2018-11-12T08:10:53.508Z,36.63
2018-11-12T08:13:22.737Z,32.03
2018-11-12T08:15:51.913Z,32.38
2018-11-12T08:18:21.199Z,30.37
2018-11-12T08:20:50.376Z,35.37
2018-11-12T08:23:19.660Z,31.80
2018-11-12T08:25:49.174Z,32.37
2018-11-12T08:28:18.376Z,31.27
2018-11-12T08:30:47.790Z,34.50
2018-11-12T08:33:16.990Z,35.30
2018-11-12T08:35:46.163Z,38.10
2018-11-12T08:38:15.418Z,35.27
2018-11-12T08:40:44.928Z,33.57
2018-11-12T08:43:13.952Z,38.77
2018-11-12T08:45:43.226Z,37.77
2018-11-12T08:48:12.442Z,37.90
2018-11-12T08:50:41.602Z,42.50
2018-11-12T08:53:10.774Z,43.07
2018-11-12T08:55:40.052Z,37.03
2018-11-12T08:58:22.764Z,33.97
2018-11-12T09:00:52.114Z,37.17
2018-11-12T09:03:21.262Z,41.73
2018-11-12T09:05:50.586Z,40.03
2018-11-12T09:08:19.920Z,39.00
2018-11-12T09:10:49.478Z,40.87
2018-11-12T09:13:18.682Z,41.67
2018-11-12T09:15:47.948Z,42.73
2018-11-12T09:18:17.164Z,37.87
2018-11-12T09:21:00.837Z,45.33
2018-11-12T09:23:30.136Z,40.27
2018-11-12T09:25:59.541Z,41.50
2018-11-12T09:28:28.862Z,41.00
2018-11-12T09:30:59.500Z,39.13
2018-11-12T09:33:27.484Z,44.63
2018-11-12T09:35:56.755Z,38.90
2018-11-12T09:38:26.013Z,42.53
2018-11-12T09:40:55.290Z,36.10
2018-11-12T09:43:24.674Z,38.10
2018-11-12T09:45:53.990Z,34.30
2018-11-12T09:48:23.213Z,35.97
2018-11-12T09:50:52.478Z,40.00
2018-11-12T09:53:22.759Z,33.37
2018-11-12T09:55:52.022Z,40.33
2018-11-12T09:58:21.230Z,35.37
2018-11-12T10:00:51.520Z,38.37
2018-11-12T10:03:27.760Z,36.87
2018-11-12T10:05:58.483Z,38.80
2018-11-12T10:08:29.190Z,39.73
2018-11-12T10:11:01.343Z,31.17
2018-11-12T10:13:33.572Z,34.43
2018-11-12T10:16:03.085Z,39.47
2018-11-12T10:18:29.458Z,39.67
2018-11-12T10:20:58.835Z,38.33
2018-11-12T10:23:28.158Z,38.00
2018-11-12T10:25:58.235Z,34.90
2018-11-12T10:28:28.354Z,34.77
2018-11-12T10:30:57.568Z,31.10
2018-11-12T10:33:26.886Z,28.43
2018-11-12T10:35:57.058Z,33.70
2018-11-12T10:38:26.214Z,32.90
2018-11-12T10:40:55.485Z,36.50
2018-11-12T10:43:25.096Z,30.47
2018-11-12T10:45:54.422Z,37.40
2018-11-12T10:48:23.612Z,32.00
2018-11-12T10:50:56.378Z,34.77
2018-11-12T10:53:22.196Z,29.40
2018-11-12T10:55:51.591Z,36.73
2018-11-12T10:58:21.202Z,32.30
2018-11-12T11:00:55.633Z,35.10
2018-11-12T11:03:26.899Z,35.80
2018-11-12T11:05:56.138Z,28.03
2018-11-12T11:08:25.298Z,29.47
2018-11-12T11:10:54.618Z,30.00
2018-11-12T11:13:23.890Z,35.07
2018-11-12T11:15:53.554Z,26.40
2018-11-12T11:18:22.938Z,31.40
2018-11-12T11:20:52.134Z,33.00
2018-11-12T11:23:21.485Z,28.83
2018-11-12T11:25:52.788Z,24.87
2018-11-12T11:28:22.208Z,25.30
2018-11-12T11:30:51.414Z,30.83
2018-11-12T11:33:20.674Z,28.67
2018-11-12T11:35:49.893Z,27.33
2018-11-12T11:38:19.273Z,29.37
2018-11-12T11:40:48.509Z,30.13
2018-11-12T11:43:17.786Z,30.87
2018-11-12T11:45:47.074Z,27.90
2018-11-12T11:48:16.711Z,31.83
2018-11-12T11:50:45.988Z,23.57
2018-11-12T11:53:15.174Z,23.97
2018-11-12T11:55:44.502Z,26.47
2018-11-12T11:58:13.729Z,31.57
2018-11-12T12:00:42.977Z,30.00
2018-11-12T12:03:12.323Z,21.97
2018-11-12T12:05:41.611Z,24.50
2018-11-12T12:08:10.866Z,27.90
2018-11-12T12:10:40.030Z,25.80
2018-11-12T12:13:09.242Z,25.87
2018-11-12T12:15:38.520Z,26.60
2018-11-12T12:18:07.799Z,26.33
2018-11-12T12:20:36.916Z,32.27
2018-11-12T12:23:06.293Z,22.03
2018-11-12T12:25:35.618Z,23.40
2018-11-12T12:28:05.419Z,26.20
2018-11-12T12:30:34.756Z,27.53
2018-11-12T12:34:33.496Z,25.93
2018-11-12T12:37:02.686Z,26.43
2018-11-12T12:39:31.937Z,27.60
2018-11-12T12:42:01.191Z,25.93
2018-11-12T12:44:32.426Z,24.43
2018-11-12T12:47:02.185Z,29.50
2018-11-12T12:49:31.600Z,32.00
2018-11-12T12:52:01.662Z,26.60
2018-11-12T12:54:30.921Z,24.30
2018-11-12T12:57:00.182Z,24.70
2018-11-12T12:59:29.475Z,24.90
2018-11-12T13:01:59.495Z,25.53
2018-11-12T13:04:28.672Z,26.47
2018-11-12T13:06:57.920Z,25.80
2018-11-12T13:09:27.386Z,22.17
2018-11-12T13:11:56.704Z,26.60
2018-11-12T13:14:25.974Z,23.20
2018-11-12T13:16:55.901Z,25.70
2018-11-12T13:19:25.885Z,26.20
2018-11-12T13:21:55.243Z,23.60
2018-11-12T13:24:24.530Z,24.10
2018-11-12T13:26:53.836Z,23.40
2018-11-12T13:29:23.166Z,22.30
2018-11-12T13:31:52.453Z,28.13
2018-11-12T13:34:21.731Z,29.47
2018-11-12T13:36:51.004Z,25.97
2018-11-12T13:39:20.298Z,26.50
2018-11-12T13:41:49.559Z,24.70
2018-11-12T13:44:18.802Z,25.43
2018-11-12T13:46:51.847Z,21.60
2018-11-12T13:49:21.118Z,22.60
2018-11-12T13:51:50.337Z,26.93
2018-11-12T13:54:19.675Z,25.77
2018-11-12T13:56:49.013Z,28.10
2018-11-12T13:59:18.194Z,28.40
2018-11-12T14:01:47.473Z,31.23
2018-11-12T14:04:16.726Z,31.30
2018-11-12T14:06:46.012Z,27.90
2018-11-12T14:09:15.298Z,24.97
2018-11-12T14:11:44.566Z,25.40
2018-11-12T14:14:14.513Z,25.13
2018-11-12T14:16:43.724Z,24.07
2018-11-12T14:19:12.882Z,29.87
2018-11-12T14:21:43.083Z,24.43
2018-11-12T14:24:12.185Z,21.50
2018-11-12T14:26:41.535Z,33.80
2018-11-12T14:29:10.855Z,23.33
2018-11-12T14:31:40.229Z,30.60
2018-11-12T14:34:09.515Z,26.20
2018-11-12T14:36:38.769Z,30.23
2018-11-12T14:39:10.067Z,25.27
2018-11-12T14:41:39.544Z,27.57
2018-11-12T14:44:09.057Z,26.93
2018-11-12T14:46:38.330Z,28.50
2018-11-12T14:49:07.677Z,27.33
2018-11-12T14:51:36.823Z,30.70
2018-11-12T14:54:06.208Z,27.77
2018-11-12T14:56:35.442Z,26.57
2018-11-12T14:59:04.970Z,27.03
2018-11-12T15:01:34.238Z,35.23
2018-11-12T15:04:04.254Z,29.47
2018-11-12T15:06:33.672Z,26.70
2018-11-12T15:09:02.990Z,33.53
2018-11-12T15:11:32.131Z,36.77
2018-11-12T15:14:01.671Z,32.30
2018-11-12T15:16:31.114Z,32.63
2018-11-12T15:19:00.490Z,31.40
2018-11-12T15:21:29.763Z,32.90
2018-11-12T15:23:58.967Z,33.70
2018-11-12T15:26:28.654Z,40.60
2018-11-12T15:28:58.318Z,35.27
2018-11-12T15:31:27.800Z,34.83
2018-11-12T15:34:00.782Z,39.90
2018-11-12T15:36:30.182Z,34.13
2018-11-12T15:38:59.387Z,34.37
2018-11-12T15:41:28.586Z,38.10
2018-11-12T15:43:57.770Z,38.10
2018-11-12T15:46:40.198Z,40.43
2018-11-12T15:49:09.508Z,37.17
2018-11-12T15:51:38.780Z,36.20
2018-11-12T15:54:08.844Z,41.40
2018-11-12T15:56:38.122Z,33.17
2018-11-12T15:59:07.422Z,35.67
2018-11-12T16:01:36.655Z,38.37
2018-11-12T16:04:06.042Z,29.93
2018-11-12T16:06:35.460Z,37.57
2018-11-12T16:09:07.256Z,40.67
2018-11-12T16:11:36.539Z,37.80
2018-11-12T16:14:07.118Z,36.63
2018-11-12T16:16:36.710Z,35.77
2018-11-12T16:19:07.696Z,35.43
2018-11-12T16:21:36.966Z,39.30
2018-11-12T16:24:06.535Z,35.20
2018-11-12T16:26:36.186Z,39.17
2018-11-12T16:29:06.156Z,38.20
2018-11-12T16:31:35.443Z,40.07
2018-11-12T16:34:04.874Z,39.27
2018-11-12T16:36:34.114Z,36.63
2018-11-12T16:39:03.499Z,38.37
2018-11-12T16:41:32.662Z,43.53
2018-11-12T16:44:01.903Z,41.57
2018-11-12T16:46:31.237Z,34.57
2018-11-12T16:49:00.474Z,36.90
2018-11-12T16:51:29.774Z,37.50
2018-11-12T16:53:59.122Z,38.97
2018-11-12T16:56:28.392Z,40.10
2018-11-12T16:58:57.670Z,41.53
2018-11-12T17:01:27.037Z,43.53
2018-11-12T17:03:56.240Z,40.60
2018-11-12T17:06:25.493Z,43.27
2018-11-12T17:08:54.841Z,39.47
2018-11-12T17:11:24.137Z,36.07
2018-11-12T17:13:53.328Z,37.23
2018-11-12T17:16:22.574Z,39.83
2018-11-12T17:18:51.756Z,44.67
2018-11-12T17:21:21.056Z,43.00
2018-11-12T17:23:50.318Z,39.70
2018-11-12T17:26:19.572Z,34.80
2018-11-12T17:28:48.843Z,39.73
2018-11-12T17:31:18.073Z,43.13
2018-11-12T17:33:47.374Z,34.70
2018-11-12T17:36:18.639Z,43.83
2018-11-12T17:38:47.883Z,49.00
2018-11-12T17:41:17.994Z,36.00
2018-11-12T17:43:47.601Z,40.75
2018-11-12T17:46:16.735Z,39.77
2018-11-12T17:48:45.992Z,43.90
2018-11-12T17:51:15.126Z,41.00
2018-11-12T17:53:44.314Z,39.10
2018-11-12T17:56:13.487Z,39.55
2018-11-12T17:58:42.754Z,34.30
2018-11-12T18:01:11.910Z,49.83
2018-11-12T18:03:42.063Z,44.53
2018-11-12T18:06:11.370Z,39.70
2018-11-12T18:08:40.552Z,50.53
2018-11-12T18:11:09.748Z,45.60
2018-11-12T18:13:38.984Z,45.73
2018-11-12T18:16:08.075Z,41.43
2018-11-12T18:18:37.280Z,46.18
2018-11-12T18:21:06.501Z,43.77
2018-11-12T18:23:35.703Z,36.57
2018-11-12T18:26:05.555Z,42.33
2018-11-12T18:28:36.372Z,41.70
2018-11-12T18:31:05.916Z,45.20
2018-11-12T18:33:34.952Z,41.63
2018-11-12T18:36:04.469Z,42.27
2018-11-12T18:38:33.845Z,46.18
2018-11-12T18:41:03.406Z,38.45
2018-11-12T18:43:32.663Z,38.53
2018-11-12T18:46:01.883Z,37.60
2018-11-12T18:48:31.147Z,39.63
2018-11-12T18:51:00.265Z,36.87
2018-11-12T18:53:30.040Z,41.67
2018-11-12T18:55:59.298Z,34.77
2018-11-12T18:58:28.816Z,36.77
2018-11-12T19:00:57.965Z,35.17
2018-11-12T19:03:27.577Z,45.77
2018-11-12T19:05:56.835Z,45.28
2018-11-12T19:08:25.985Z,33.42
2018-11-12T19:10:55.288Z,43.33
2018-11-12T19:13:24.437Z,42.25
2018-11-12T19:15:53.661Z,42.43
2018-11-12T19:18:22.844Z,37.23
2018-11-12T19:20:52.054Z,40.73
2018-11-12T19:23:21.260Z,40.60
2018-11-12T19:25:50.457Z,40.10
2018-11-12T19:28:20.520Z,42.98
2018-11-12T19:30:50.575Z,46.42
2018-11-12T19:33:19.780Z,45.97
2018-11-12T19:35:49.001Z,44.40
2018-11-12T19:38:18.230Z,43.30
2018-11-12T19:40:47.601Z,43.55
2018-11-12T19:43:16.729Z,49.20
2018-11-12T19:45:45.891Z,51.90
2018-11-12T19:48:15.085Z,40.90
2018-11-12T19:50:44.272Z,38.55
2018-11-12T19:53:13.502Z,43.60
2018-11-12T19:55:42.670Z,44.45
2018-11-12T19:58:11.878Z,45.28
2018-11-12T20:00:41.355Z,47.48
2018-11-12T20:03:10.637Z,42.53
2018-11-12T20:05:39.870Z,45.17
2018-11-12T20:08:09.063Z,45.23
2018-11-12T20:10:38.320Z,45.03
2018-11-12T20:13:07.509Z,42.50
2018-11-12T20:15:36.737Z,49.00
2018-11-12T20:18:06.166Z,47.90
2018-11-12T20:20:35.382Z,45.50
2018-11-12T20:23:04.846Z,46.83
2018-11-12T20:25:34.042Z,44.85
2018-11-12T20:28:03.246Z,46.42
2018-11-12T20:30:36.872Z,50.25
2018-11-12T20:33:06.437Z,46.83
2018-11-12T20:35:35.656Z,52.85
2018-11-12T20:38:05.147Z,48.60
2018-11-12T20:40:35.383Z,52.93
2018-11-12T20:43:04.743Z,50.30
2018-11-12T20:45:33.932Z,49.23
2018-11-12T20:48:03.201Z,47.70
2018-11-12T20:50:32.639Z,47.90
2018-11-12T20:53:01.841Z,48.70
2018-11-12T20:55:31.205Z,53.80
2018-11-12T20:58:01.097Z,49.33
2018-11-12T21:00:30.427Z,49.50
2018-11-12T21:02:59.612Z,40.03
2018-11-12T21:05:29.861Z,52.27
2018-11-12T21:07:59.097Z,54.93
2018-11-12T21:10:28.247Z,47.65
2018-11-12T21:12:57.456Z,49.23
2018-11-12T21:15:26.958Z,51.55
2018-11-12T21:17:56.159Z,49.53
2018-11-12T21:20:26.425Z,59.90
2018-11-12T21:22:56.071Z,50.15
2018-11-12T21:25:26.503Z,47.17
2018-11-12T21:27:56.040Z,54.60
2018-11-12T21:30:26.938Z,57.05
2018-11-12T21:32:56.474Z,55.65
2018-11-12T21:35:25.729Z,53.13
2018-11-12T21:37:55.984Z,55.65
2018-11-12T21:40:26.490Z,47.40
2018-11-12T21:42:55.863Z,47.90
2018-11-12T21:45:28.117Z,51.85
2018-11-12T21:47:57.333Z,45.12
2018-11-12T21:50:26.901Z,53.08
2018-11-12T21:53:09.120Z,54.60
2018-11-12T21:55:38.324Z,57.20
2018-11-12T21:58:07.517Z,55.75
2018-11-12T22:00:36.722Z,62.80
2018-11-12T22:03:06.429Z,55.63
2018-11-12T22:05:35.569Z,48.80
2018-11-12T22:08:06.207Z,52.75
2018-11-12T22:10:35.402Z,46.00
2018-11-12T22:13:05.004Z,51.50
2018-11-12T22:15:34.504Z,58.42
2018-11-12T22:18:03.689Z,57.40
2018-11-12T22:20:32.881Z,45.75
2018-11-12T22:23:02.092Z,56.73
2018-11-12T22:25:31.268Z,56.10
2018-11-12T22:28:00.453Z,54.48
2018-11-12T22:30:29.743Z,55.60
2018-11-12T22:32:58.898Z,48.33
2018-11-12T22:35:28.057Z,42.98
2018-11-12T22:37:57.215Z,40.83
2018-11-12T22:40:26.432Z,53.95
2018-11-12T22:42:56.525Z,53.80
2018-11-12T22:45:26.818Z,53.65
2018-11-12T22:47:56.043Z,48.60
2018-11-12T22:50:25.219Z,53.28
2018-11-12T22:52:54.393Z,59.95
2018-11-12T22:55:23.586Z,42.98
2018-11-12T22:57:52.775Z,46.80
2018-11-12T23:00:27.889Z,47.25
2018-11-12T23:02:57.828Z,51.85
2018-11-12T23:05:27.000Z,51.85
2018-11-12T23:07:56.495Z,49.60
2018-11-12T23:10:25.633Z,52.65
2018-11-12T23:12:54.783Z,56.23
2018-11-12T23:15:23.980Z,55.30
2018-11-12T23:17:53.161Z,52.55
2018-11-12T23:20:23.599Z,50.23
2018-11-12T23:22:53.207Z,48.45
2018-11-12T23:25:22.423Z,46.53
2018-11-12T23:27:52.090Z,45.43
2018-11-12T23:30:22.540Z,52.78
2018-11-12T23:32:51.982Z,56.70
2018-11-12T23:35:22.664Z,47.30
2018-11-12T23:37:51.981Z,45.00
2018-11-12T23:40:21.141Z,42.95
2018-11-12T23:42:50.351Z,45.90
2018-11-12T23:45:19.663Z,47.08
2018-11-12T23:47:48.929Z,47.85
2018-11-12T23:50:20.151Z,42.55
2018-11-12T23:52:50.056Z,42.30
2018-11-12T23:55:19.556Z,56.53
2018-11-12T23:57:49.445Z,45.90
